createdAt,value
2018-06-19T00:01:19.756Z,15.33
2018-06-19T00:03:47.765Z,13.30
2018-06-19T00:06:16.783Z,15.80
2018-06-19T00:08:44.628Z,15.77
2018-06-19T00:11:12.472Z,13.70
2018-06-19T00:13:40.555Z,15.60
2018-06-19T00:16:08.694Z,12.23
2018-06-19T00:18:40.744Z,15.27
2018-06-19T00:21:10.635Z,14.73
2018-06-19T00:23:38.616Z,12.43
2018-06-19T00:26:06.450Z,14.10
2018-06-19T00:28:35.156Z,15.10
2018-06-19T00:31:03.451Z,20.70
2018-06-19T00:33:31.432Z,13.60
2018-06-19T00:35:59.284Z,12.67
2018-06-19T00:38:26.932Z,19.80
2018-06-19T00:40:54.743Z,17.50
2018-06-19T00:43:23.302Z,16.53
2018-06-19T00:45:51.336Z,11.97
2018-06-19T00:48:19.249Z,12.40
2018-06-19T00:50:47.230Z,12.00
2018-06-19T00:53:15.128Z,16.00
2018-06-19T00:55:42.873Z,16.73
2018-06-19T00:58:10.783Z,13.57
2018-06-19T01:00:38.850Z,13.93
2018-06-19T01:03:06.807Z,19.73
2018-06-19T01:05:34.824Z,13.57
2018-06-19T01:08:02.660Z,9.20
2018-06-19T01:10:30.682Z,15.93
2018-06-19T01:12:58.476Z,11.87
2018-06-19T01:15:26.280Z,12.10
2018-06-19T01:17:54.291Z,17.20
2018-06-19T01:20:22.204Z,18.40
2018-06-19T01:22:50.060Z,18.57
2018-06-19T01:25:17.864Z,12.77
2018-06-19T01:27:46.020Z,19.50
2018-06-19T01:30:13.813Z,17.73
2018-06-19T01:32:41.628Z,16.87
2018-06-19T01:35:09.451Z,14.57
2018-06-19T01:37:37.355Z,18.50
2018-06-19T01:40:05.407Z,21.80
2018-06-19T01:42:33.408Z,22.07
2018-06-19T01:45:01.337Z,18.33
2018-06-19T01:47:29.192Z,23.77
2018-06-19T01:49:57.045Z,17.67
2018-06-19T01:52:24.807Z,20.63
2018-06-19T01:54:52.374Z,23.50
2018-06-19T01:57:20.320Z,18.20
2018-06-19T01:59:48.141Z,16.53
2018-06-19T02:02:15.924Z,20.63
2018-06-19T02:04:43.847Z,17.60
2018-06-19T02:07:11.884Z,17.80
2018-06-19T02:09:39.720Z,18.03
2018-06-19T02:12:07.545Z,23.70
2018-06-19T02:14:35.515Z,16.20
2018-06-19T02:17:04.021Z,22.27
2018-06-19T02:19:32.060Z,15.30
2018-06-19T02:22:00.029Z,25.33
2018-06-19T02:24:27.917Z,21.03
2018-06-19T02:26:55.670Z,16.97
2018-06-19T02:29:23.526Z,21.87
2018-06-19T02:31:51.201Z,16.63
2018-06-19T02:34:18.973Z,17.93
2018-06-19T02:36:46.980Z,18.43
2018-06-19T02:39:14.836Z,24.40
2018-06-19T02:41:42.593Z,19.70
2018-06-19T02:46:44.728Z,24.30
2018-06-19T02:49:13.292Z,17.40
2018-06-19T02:51:41.268Z,15.90
2018-06-19T02:54:09.124Z,20.97
2018-06-19T02:56:36.889Z,16.20
2018-06-19T02:59:04.827Z,15.57
2018-06-19T03:01:32.837Z,17.20
2018-06-19T03:04:00.680Z,25.13
2018-06-19T03:06:28.509Z,32.47
2018-06-19T03:08:56.445Z,15.53
2018-06-19T03:11:24.365Z,21.97
2018-06-19T03:13:52.455Z,18.47
2018-06-19T03:16:20.245Z,21.57
2018-06-19T03:18:48.063Z,18.57
2018-06-19T03:21:15.927Z,21.03
2018-06-19T03:23:43.725Z,21.90
2018-06-19T03:26:11.683Z,25.43
2018-06-19T03:28:39.538Z,22.90
2018-06-19T03:31:07.296Z,24.53
2018-06-19T03:33:35.273Z,24.07
2018-06-19T03:36:02.978Z,17.80
2018-06-19T03:38:30.778Z,20.87
2018-06-19T03:40:58.497Z,19.27
2018-06-19T03:43:26.311Z,22.40
2018-06-19T03:45:54.104Z,21.40
2018-06-19T03:48:21.888Z,23.33
2018-06-19T03:50:49.765Z,19.20
2018-06-19T03:53:17.563Z,18.13
2018-06-19T03:55:45.508Z,16.97
2018-06-19T03:58:13.544Z,23.47
2018-06-19T04:00:41.520Z,24.07
2018-06-19T04:03:09.428Z,23.27
2018-06-19T04:05:37.538Z,21.60
2018-06-19T04:08:05.319Z,21.87
2018-06-19T04:10:33.267Z,18.20
2018-06-19T04:13:01.074Z,20.67
2018-06-19T04:15:28.906Z,18.43
2018-06-19T04:17:56.741Z,22.93
2018-06-19T04:20:24.638Z,25.33
2018-06-19T04:22:52.609Z,27.47
2018-06-19T04:25:20.511Z,23.50
2018-06-19T04:27:48.268Z,27.33
2018-06-19T04:30:16.266Z,21.13
2018-06-19T04:32:44.126Z,22.13
2018-06-19T04:35:12.201Z,24.93
2018-06-19T04:37:40.008Z,29.43
2018-06-19T04:40:07.864Z,28.37
2018-06-19T04:42:35.822Z,19.67
2018-06-19T04:45:03.790Z,30.13
2018-06-19T04:47:31.797Z,21.97
2018-06-19T04:49:59.612Z,23.47
2018-06-19T04:52:27.406Z,22.83
2018-06-19T04:54:55.284Z,19.90
2018-06-19T04:57:23.963Z,22.67
2018-06-19T04:59:51.795Z,24.07
2018-06-19T05:02:19.656Z,25.70
2018-06-19T05:04:47.564Z,21.00
2018-06-19T05:07:15.392Z,26.07
2018-06-19T05:09:43.255Z,29.37
2018-06-19T05:12:10.955Z,19.37
2018-06-19T05:14:38.744Z,32.00
2018-06-19T05:17:06.757Z,25.80
2018-06-19T05:19:34.852Z,25.13
2018-06-19T05:22:02.708Z,27.77
2018-06-19T05:24:30.548Z,23.60
2018-06-19T05:26:59.276Z,23.57
2018-06-19T05:29:27.061Z,25.37
2018-06-19T05:31:54.784Z,27.03
2018-06-19T05:34:22.807Z,18.23
2018-06-19T05:36:50.784Z,23.90
2018-06-19T05:39:18.912Z,20.33
2018-06-19T05:41:46.809Z,22.43
2018-06-19T05:44:14.804Z,16.93
2018-06-19T05:46:42.949Z,21.33
2018-06-19T05:49:10.992Z,24.53
2018-06-19T05:51:38.828Z,22.93
2018-06-19T05:54:07.286Z,21.47
2018-06-19T05:56:35.088Z,23.77
2018-06-19T05:59:02.942Z,18.77
2018-06-19T06:01:30.975Z,32.33
2018-06-19T06:03:58.910Z,21.80
2018-06-19T06:06:26.823Z,22.63
2018-06-19T06:08:54.684Z,20.63
2018-06-19T06:11:22.355Z,24.63
2018-06-19T06:13:50.170Z,23.50
2018-06-19T06:16:18.012Z,21.30
2018-06-19T06:18:45.787Z,25.67
2018-06-19T06:21:13.940Z,19.67
2018-06-19T06:23:41.872Z,19.03
2018-06-19T06:26:09.680Z,27.60
2018-06-19T06:28:37.452Z,24.57
2018-06-19T06:31:05.329Z,23.70
2018-06-19T06:33:33.101Z,22.77
2018-06-19T06:36:00.996Z,16.70
2018-06-19T06:38:29.702Z,19.43
2018-06-19T06:40:57.676Z,23.03
2018-06-19T06:43:25.676Z,19.70
2018-06-19T06:45:53.612Z,23.13
2018-06-19T06:48:21.584Z,22.33
2018-06-19T06:50:49.864Z,26.63
2018-06-19T06:53:17.857Z,21.33
2018-06-19T06:55:45.816Z,27.67
2018-06-19T06:58:14.047Z,19.23
2018-06-19T07:00:42.107Z,19.70
2018-06-19T07:03:10.064Z,22.37
2018-06-19T07:05:37.993Z,23.90
2018-06-19T07:08:05.901Z,19.37
2018-06-19T07:10:33.932Z,27.03
2018-06-19T07:13:01.777Z,27.43
2018-06-19T07:15:29.634Z,31.00
2018-06-19T07:17:57.458Z,24.40
2018-06-19T07:20:25.556Z,27.10
2018-06-19T07:22:53.432Z,39.83
2018-06-19T07:25:21.386Z,28.60
2018-06-19T07:27:49.192Z,28.37
2018-06-19T07:30:17.183Z,28.00
2018-06-19T07:32:45.137Z,25.50
2018-06-19T07:35:13.333Z,22.00
2018-06-19T07:37:41.396Z,20.70
2018-06-19T07:40:09.253Z,22.20
2018-06-19T07:42:37.008Z,23.17
2018-06-19T07:45:04.894Z,17.50
2018-06-19T07:47:33.465Z,25.13
2018-06-19T07:50:01.257Z,18.53
2018-06-19T07:52:29.264Z,17.10
2018-06-19T07:54:57.215Z,14.03
2018-06-19T07:57:25.160Z,10.87
2018-06-19T07:59:53.185Z,11.63
2018-06-19T08:02:22.329Z,14.30
2018-06-19T08:04:50.212Z,12.27
2018-06-19T08:07:17.885Z,17.20
2018-06-19T08:09:45.672Z,16.40
2018-06-19T08:12:13.512Z,11.27
2018-06-19T08:14:41.314Z,11.10
2018-06-19T08:17:09.145Z,16.40
2018-06-19T08:19:37.252Z,10.17
2018-06-19T08:22:05.085Z,8.00
2018-06-19T08:24:32.895Z,13.97
2018-06-19T08:27:00.855Z,9.30
2018-06-19T08:29:28.753Z,8.67
2018-06-19T08:31:56.797Z,8.73
2018-06-19T08:34:24.667Z,9.17
2018-06-19T08:36:52.484Z,14.20
2018-06-19T08:39:20.408Z,11.87
2018-06-19T08:41:48.407Z,11.93
2018-06-19T08:44:16.391Z,14.03
2018-06-19T08:46:44.321Z,10.90
2018-06-19T08:49:12.960Z,10.60
2018-06-19T08:51:40.829Z,11.60
2018-06-19T08:54:08.821Z,7.90
2018-06-19T08:56:37.009Z,11.53
2018-06-19T08:59:04.868Z,13.10
2018-06-19T09:01:33.416Z,12.40
2018-06-19T09:04:01.344Z,11.43
2018-06-19T09:06:29.269Z,12.13
2018-06-19T09:08:56.924Z,21.33
2018-06-19T09:11:24.739Z,13.03
2018-06-19T09:13:52.628Z,16.00
2018-06-19T09:16:20.587Z,17.37
2018-06-19T09:18:48.635Z,13.20
2018-06-19T09:21:16.522Z,21.27
2018-06-19T09:23:44.465Z,10.17
2018-06-19T09:26:12.870Z,11.07
2018-06-19T09:28:40.909Z,15.67
2018-06-19T09:31:08.684Z,13.83
2018-06-19T09:33:36.309Z,13.27
2018-06-19T09:36:04.042Z,13.27
2018-06-19T09:38:31.725Z,12.43
2018-06-19T09:40:59.788Z,12.00
2018-06-19T09:43:27.780Z,13.50
2018-06-19T09:45:55.732Z,13.13
2018-06-19T09:48:23.724Z,15.03
2018-06-19T09:50:51.656Z,6.30
2018-06-19T09:53:19.633Z,9.80
2018-06-19T09:55:47.561Z,11.13
2018-06-19T09:58:15.508Z,14.50
2018-06-19T10:00:43.253Z,16.00
2018-06-19T10:03:11.301Z,10.23
2018-06-19T10:05:39.099Z,9.00
2018-06-19T10:08:06.746Z,4.70
2018-06-19T10:10:34.587Z,11.27
2018-06-19T10:13:02.524Z,15.33
2018-06-19T10:15:30.361Z,11.20
2018-06-19T10:17:58.220Z,12.63
2018-06-19T10:20:26.140Z,9.73
2018-06-19T10:22:54.375Z,9.57
2018-06-19T10:25:22.336Z,11.33
2018-06-19T10:27:50.387Z,18.43
2018-06-19T10:30:18.937Z,11.70
2018-06-19T10:32:47.142Z,10.80
2018-06-19T10:35:14.908Z,9.23
2018-06-19T10:37:42.895Z,9.03
2018-06-19T10:40:10.925Z,8.93
2018-06-19T10:42:38.824Z,8.13
2018-06-19T10:45:06.828Z,15.37
2018-06-19T10:47:34.754Z,10.80
2018-06-19T10:50:02.601Z,12.63
2018-06-19T10:52:30.275Z,8.73
2018-06-19T10:54:58.110Z,13.87
2018-06-19T10:57:26.069Z,9.13
2018-06-19T10:59:53.892Z,9.23
2018-06-19T11:02:21.760Z,10.60
2018-06-19T11:04:49.665Z,10.20
2018-06-19T11:07:21.820Z,15.53
2018-06-19T11:09:49.491Z,6.17
2018-06-19T11:12:17.080Z,7.13
2018-06-19T11:14:44.856Z,5.37
2018-06-19T11:17:12.404Z,12.93
2018-06-19T11:19:40.172Z,7.57
2018-06-19T11:22:07.985Z,4.43
2018-06-19T11:24:35.773Z,6.10
2018-06-19T11:27:03.511Z,7.83
2018-06-19T11:29:31.502Z,7.47
2018-06-19T11:31:59.433Z,2.90
2018-06-19T11:34:27.220Z,9.73
2018-06-19T11:36:55.060Z,6.20
2018-06-19T11:39:22.862Z,3.57
2018-06-19T11:41:50.886Z,5.93
2018-06-19T11:44:18.780Z,3.83
2018-06-19T11:46:46.677Z,3.07
2018-06-19T11:49:14.388Z,6.30
2018-06-19T11:51:42.423Z,3.07
2018-06-19T11:54:10.341Z,2.40
2018-06-19T11:56:38.402Z,2.27
2018-06-19T11:59:06.205Z,4.33
2018-06-19T12:01:34.008Z,1.23
2018-06-19T12:04:02.016Z,1.30
2018-06-19T12:06:29.940Z,0.93
2018-06-19T12:08:57.931Z,3.27
2018-06-19T12:11:25.942Z,1.60
2018-06-19T12:13:54.181Z,1.97
2018-06-19T12:16:22.203Z,0.73
2018-06-19T12:18:50.029Z,2.80
2018-06-19T12:21:17.961Z,3.33
2018-06-19T12:23:45.690Z,3.60
2018-06-19T12:26:13.651Z,2.73
2018-06-19T12:28:41.452Z,2.10
2018-06-19T12:31:09.356Z,2.40
2018-06-19T12:33:37.197Z,2.97
2018-06-19T12:36:05.341Z,3.00
2018-06-19T12:38:33.104Z,2.47
2018-06-19T12:41:00.984Z,2.00
2018-06-19T12:43:28.724Z,1.53
2018-06-19T12:45:56.589Z,1.90
2018-06-19T12:48:24.401Z,1.73
2018-06-19T12:51:57.346Z,2.13
2018-06-19T12:55:30.729Z,6.90
2018-06-19T12:57:58.791Z,2.80
2018-06-19T13:00:26.780Z,6.27
2018-06-19T13:03:00.545Z,3.00
2018-06-19T13:05:33.761Z,2.27
2018-06-19T13:08:01.652Z,1.63
2018-06-19T13:10:29.284Z,2.97
2018-06-19T13:13:28.491Z,4.10
2018-06-19T13:15:56.615Z,1.37
2018-06-19T13:18:29.931Z,4.20
2018-06-19T13:20:57.749Z,4.07
2018-06-19T13:23:25.826Z,5.13
2018-06-19T13:25:53.820Z,2.83
2018-06-19T13:28:22.909Z,1.80
2018-06-19T13:30:55.971Z,5.30
2018-06-19T13:33:23.843Z,6.40
2018-06-19T13:35:51.695Z,5.00
2018-06-19T13:38:19.509Z,2.80
2018-06-19T13:41:02.136Z,5.17
2018-06-19T13:43:35.447Z,3.83
2018-06-19T13:46:03.363Z,3.57
2018-06-19T13:48:31.335Z,3.97
2018-06-19T13:50:59.376Z,2.00
2018-06-19T13:53:27.151Z,3.50
2018-06-19T13:56:00.904Z,2.70
2018-06-19T13:58:28.742Z,3.67
2018-06-19T14:00:56.417Z,5.30
2018-06-19T14:03:24.455Z,3.43
2018-06-19T14:05:52.216Z,4.43
2018-06-19T14:08:29.012Z,1.60
2018-06-19T14:11:02.043Z,3.07
2018-06-19T14:13:29.856Z,3.03
2018-06-19T14:15:57.768Z,3.97
2018-06-19T14:18:25.600Z,1.77
2018-06-19T14:20:53.492Z,4.93
2018-06-19T14:23:21.407Z,2.80
2018-06-19T14:25:49.227Z,3.73
2018-06-19T14:28:17.748Z,6.10
2018-06-19T14:30:45.505Z,2.50
2018-06-19T14:33:13.318Z,3.00
2018-06-19T14:35:41.323Z,3.00
2018-06-19T14:38:09.280Z,4.30
2018-06-19T14:40:37.196Z,3.57
2018-06-19T14:43:05.168Z,6.20
2018-06-19T14:45:33.149Z,0.90
2018-06-19T14:48:01.128Z,3.93
2018-06-19T14:50:29.210Z,5.87
2018-06-19T14:52:57.099Z,3.00
2018-06-19T14:55:25.057Z,4.67
2018-06-19T14:57:52.924Z,2.40
2018-06-19T15:00:20.716Z,8.97
2018-06-19T15:02:48.544Z,3.43
2018-06-19T15:05:16.396Z,4.73
2018-06-19T15:07:49.549Z,8.70
2018-06-19T15:10:17.453Z,4.23
2018-06-19T15:12:45.362Z,3.37
2018-06-19T15:15:13.151Z,8.00
2018-06-19T15:17:41.036Z,4.43
2018-06-19T15:20:08.970Z,5.03
2018-06-19T15:22:36.700Z,5.73
2018-06-19T15:25:04.784Z,5.37
2018-06-19T15:27:32.598Z,6.23
2018-06-19T15:30:00.371Z,3.33
2018-06-19T15:32:28.251Z,5.00
2018-06-19T15:34:56.045Z,5.73
2018-06-19T15:37:24.045Z,6.27
2018-06-19T15:39:51.822Z,2.37
2018-06-19T15:42:19.633Z,3.13
2018-06-19T15:44:47.501Z,8.53
2018-06-19T15:47:15.345Z,14.13
2018-06-19T15:49:43.345Z,5.73
2018-06-19T15:52:11.175Z,5.30
2018-06-19T15:54:39.068Z,8.93
2018-06-19T15:57:06.857Z,6.50
2018-06-19T15:59:34.764Z,5.50
2018-06-19T16:02:03.028Z,4.03
2018-06-19T16:04:30.807Z,2.80
2018-06-19T16:06:58.682Z,6.70
2018-06-19T16:09:26.427Z,6.00
2018-06-19T16:11:54.397Z,13.10
2018-06-19T16:14:22.277Z,3.03
2018-06-19T16:16:50.045Z,7.97
2018-06-19T16:19:18.044Z,4.80
2018-06-19T16:21:45.667Z,5.87
2018-06-19T16:24:13.197Z,2.47
2018-06-19T16:26:40.773Z,1.00
2018-06-19T16:29:08.321Z,3.20
2018-06-19T16:31:35.878Z,3.50
2018-06-19T16:34:03.445Z,6.87
2018-06-19T16:36:31.059Z,6.60
2018-06-19T16:38:58.654Z,3.53
2018-06-19T16:41:26.177Z,7.07
2018-06-19T16:43:53.807Z,5.17
2018-06-19T16:46:21.381Z,5.90
2018-06-19T16:48:48.904Z,3.93
2018-06-19T16:51:16.471Z,3.90
2018-06-19T16:53:44.026Z,9.67
2018-06-19T16:56:11.600Z,7.90
2018-06-19T16:58:39.184Z,5.97
2018-06-19T17:01:06.752Z,5.30
2018-06-19T17:03:34.288Z,5.53
2018-06-19T17:06:01.913Z,1.50
2018-06-19T17:08:29.488Z,2.77
2018-06-19T17:10:57.135Z,1.53
2018-06-19T17:13:24.734Z,5.43
2018-06-19T17:15:52.343Z,8.17
2018-06-19T17:18:19.919Z,5.40
2018-06-19T17:20:47.531Z,4.63
2018-06-19T17:23:15.078Z,5.70
2018-06-19T17:25:42.673Z,4.07
2018-06-19T17:28:10.300Z,6.50
2018-06-19T17:30:37.855Z,4.83
2018-06-19T17:33:05.382Z,2.93
2018-06-19T17:35:32.971Z,9.57
2018-06-19T17:38:00.543Z,4.53
2018-06-19T17:40:28.164Z,10.33
2018-06-19T17:42:55.732Z,5.17
2018-06-19T17:45:23.308Z,5.20
2018-06-19T17:47:50.868Z,3.13
2018-06-19T17:50:18.432Z,4.27
2018-06-19T17:52:46.008Z,7.80
2018-06-19T17:55:13.722Z,7.70
2018-06-19T17:57:41.291Z,7.60
2018-06-19T18:00:08.824Z,3.93
2018-06-19T18:02:36.471Z,7.40
2018-06-19T18:05:04.051Z,1.30
2018-06-19T18:07:31.581Z,10.03
2018-06-19T18:09:59.332Z,7.20
2018-06-19T18:12:26.877Z,8.53
2018-06-19T18:14:54.448Z,7.37
2018-06-19T18:17:22.030Z,6.53
2018-06-19T18:19:49.564Z,4.27
2018-06-19T18:22:17.119Z,8.17
2018-06-19T18:24:44.945Z,1.97
2018-06-19T18:27:12.492Z,6.97
2018-06-19T18:29:40.060Z,3.90
2018-06-19T18:32:07.665Z,17.70
2018-06-19T18:34:35.181Z,7.47
2018-06-19T18:37:02.708Z,5.07
2018-06-19T18:39:30.307Z,12.43
2018-06-19T18:41:57.856Z,11.40
2018-06-19T18:44:25.384Z,7.57
2018-06-19T18:46:53.159Z,8.23
2018-06-19T18:49:20.550Z,5.70
2018-06-19T18:51:48.339Z,7.23
2018-06-19T18:54:15.982Z,12.40
2018-06-19T18:56:43.588Z,5.30
2018-06-19T18:59:11.129Z,6.33
2018-06-19T19:01:38.714Z,8.40
2018-06-19T19:04:06.249Z,4.90
2018-06-19T19:06:33.795Z,6.20
2018-06-19T19:09:01.429Z,5.67
2018-06-19T19:11:28.973Z,10.53
2018-06-19T19:13:56.506Z,5.57
2018-06-19T19:16:29.320Z,4.40
2018-06-19T19:19:01.825Z,8.23
2018-06-19T19:21:29.482Z,7.40
2018-06-19T19:23:57.093Z,10.53
2018-06-19T19:26:29.913Z,3.50
2018-06-19T19:29:02.719Z,7.03
2018-06-19T19:31:30.333Z,12.80
2018-06-19T19:33:57.889Z,15.27
2018-06-19T19:36:30.780Z,6.30
2018-06-19T19:39:03.536Z,6.40
2018-06-19T19:41:31.153Z,9.70
2018-06-19T19:43:58.736Z,16.23
2018-06-19T19:48:37.023Z,10.43
2018-06-19T19:51:04.608Z,12.67
2018-06-19T19:53:32.228Z,10.70
2018-06-19T19:58:07.369Z,11.13
2018-06-19T20:00:34.956Z,5.47
2018-06-19T20:03:02.497Z,7.83
2018-06-19T20:05:30.076Z,10.30
2018-06-19T20:07:57.634Z,5.87
2018-06-19T20:10:25.180Z,4.60
2018-06-19T20:12:52.761Z,10.60
2018-06-19T20:15:20.325Z,9.03
2018-06-19T20:17:47.925Z,7.57
2018-06-19T20:20:15.478Z,7.97
2018-06-19T20:22:43.009Z,7.03
2018-06-19T20:25:11.394Z,5.60
2018-06-19T20:27:39.243Z,7.27
2018-06-19T20:30:07.430Z,8.37
2018-06-19T20:32:35.016Z,3.63
2018-06-19T20:35:02.580Z,8.63
2018-06-19T20:37:30.113Z,9.07
2018-06-19T20:39:57.632Z,8.03
2018-06-19T20:42:25.198Z,3.77
2018-06-19T20:44:52.763Z,5.97
2018-06-19T20:47:20.269Z,4.87
2018-06-19T20:49:47.903Z,11.20
2018-06-19T20:52:15.457Z,14.17
2018-06-19T20:54:43.032Z,11.20
2018-06-19T20:57:10.582Z,6.23
2018-06-19T20:59:38.139Z,13.13
2018-06-19T21:02:05.792Z,6.40
2018-06-19T21:04:33.446Z,15.97
2018-06-19T21:07:01.041Z,15.00
2018-06-19T21:09:28.977Z,6.60
2018-06-19T21:11:56.636Z,9.87
2018-06-19T21:14:24.243Z,4.30
2018-06-19T21:16:51.857Z,6.60
2018-06-19T21:19:19.477Z,10.27
2018-06-19T21:21:47.548Z,8.50
2018-06-19T21:24:15.110Z,15.77
2018-06-19T21:26:42.760Z,5.10
2018-06-19T21:29:10.339Z,14.10
2018-06-19T21:31:37.868Z,8.30
2018-06-19T21:34:05.455Z,8.33
2018-06-19T21:36:33.001Z,10.20
2018-06-19T21:39:00.545Z,11.00
2018-06-19T21:41:28.112Z,14.20
2018-06-19T21:43:55.833Z,10.40
2018-06-19T21:46:23.356Z,15.23
2018-06-19T21:48:51.156Z,7.27
2018-06-19T21:51:19.038Z,12.73
2018-06-19T21:53:47.059Z,7.50
2018-06-19T21:56:14.949Z,9.63
2018-06-19T21:58:42.710Z,10.17
2018-06-19T22:01:10.924Z,7.50
2018-06-19T22:03:38.902Z,8.23
2018-06-19T22:06:07.536Z,6.03
2018-06-19T22:08:40.745Z,8.10
2018-06-19T22:11:09.333Z,13.23
2018-06-19T22:13:37.330Z,7.40
2018-06-19T22:16:05.179Z,10.37
2018-06-19T22:18:32.826Z,8.67
2018-06-19T22:21:00.552Z,6.03
2018-06-19T22:23:28.612Z,7.40
2018-06-19T22:25:56.420Z,8.93
2018-06-19T22:28:24.216Z,8.03
2018-06-19T22:30:52.244Z,6.83
2018-06-19T22:33:20.037Z,10.90
2018-06-19T22:35:47.696Z,9.83
2018-06-19T22:38:15.556Z,19.70
2018-06-19T22:40:43.476Z,10.30
2018-06-19T22:43:11.449Z,9.93
2018-06-19T22:45:39.462Z,6.57
2018-06-19T22:48:07.431Z,5.80
2018-06-19T22:50:35.407Z,13.63
2018-06-19T22:53:03.277Z,9.83
2018-06-19T22:55:31.032Z,8.53
2018-06-19T22:57:58.873Z,10.67
2018-06-19T23:00:26.971Z,9.53
2018-06-19T23:02:59.043Z,15.43
2018-06-19T23:05:26.964Z,7.13
2018-06-19T23:07:54.847Z,10.93
2018-06-19T23:10:22.852Z,5.13
2018-06-19T23:12:50.945Z,7.23
2018-06-19T23:15:18.695Z,13.97
2018-06-19T23:17:46.491Z,8.83
2018-06-19T23:20:14.500Z,9.00
2018-06-19T23:22:42.387Z,14.10
2018-06-19T23:25:10.279Z,10.33
2018-06-19T23:27:38.105Z,11.97
2018-06-19T23:30:06.088Z,14.57
2018-06-19T23:32:33.892Z,6.63
2018-06-19T23:35:01.600Z,10.57
2018-06-19T23:37:29.202Z,5.50
2018-06-19T23:39:57.035Z,10.93
2018-06-19T23:42:24.889Z,7.13
2018-06-19T23:44:52.653Z,10.70
2018-06-19T23:47:20.647Z,13.10
2018-06-19T23:49:48.493Z,9.17
2018-06-19T23:52:16.285Z,10.00
2018-06-19T23:54:44.324Z,10.00
2018-06-19T23:57:12.248Z,12.47
2018-06-19T23:59:40.187Z,8.03
